createdAt,value
2018-05-16T00:02:20.684Z,13.10
2018-05-16T00:04:48.977Z,13.20
2018-05-16T00:07:17.256Z,13.20
2018-05-16T00:09:46.348Z,13.30
2018-05-16T00:12:14.628Z,13.20
2018-05-16T00:14:42.895Z,13.30
2018-05-16T00:17:11.202Z,13.30
2018-05-16T00:19:39.524Z,13.30
2018-05-16T00:22:07.877Z,13.30
2018-05-16T00:24:36.158Z,13.30
2018-05-16T00:27:04.450Z,13.30
2018-05-16T00:29:32.754Z,13.30
2018-05-16T00:32:01.067Z,13.30
2018-05-16T00:34:29.351Z,13.30
2018-05-16T00:36:57.633Z,13.30
2018-05-16T00:39:25.937Z,13.20
2018-05-16T00:41:54.220Z,13.20
2018-05-16T00:44:22.507Z,13.20
2018-05-16T00:46:50.787Z,13.20
2018-05-16T00:49:19.078Z,13.10
2018-05-16T00:51:48.135Z,13.10
2018-05-16T00:54:16.427Z,13.00
2018-05-16T00:56:44.721Z,13.10
2018-05-16T00:59:13.786Z,13.10
2018-05-16T01:01:42.080Z,13.00
2018-05-16T01:04:10.379Z,13.00
2018-05-16T01:06:39.451Z,13.00
2018-05-16T01:09:07.768Z,12.90
2018-05-16T01:11:36.055Z,13.00
2018-05-16T01:14:04.359Z,12.90
2018-05-16T01:16:32.649Z,12.80
2018-05-16T01:19:02.440Z,12.60
2018-05-16T01:21:30.739Z,12.60
2018-05-16T01:23:59.021Z,12.70
2018-05-16T01:26:27.309Z,12.60
2018-05-16T01:28:56.371Z,12.70
2018-05-16T01:31:24.663Z,12.60
2018-05-16T01:33:52.940Z,12.70
2018-05-16T01:36:21.243Z,12.60
2018-05-16T01:38:50.304Z,12.60
2018-05-16T01:41:20.120Z,12.50
2018-05-16T01:43:48.378Z,12.50
2018-05-16T01:46:16.671Z,12.50
2018-05-16T01:48:57.007Z,12.50
2018-05-16T01:51:25.307Z,12.40
2018-05-16T01:53:55.104Z,12.30
2018-05-16T01:56:23.404Z,12.30
2018-05-16T01:58:51.707Z,12.40
2018-05-16T02:01:20.084Z,12.30
2018-05-16T02:03:48.394Z,12.30
2018-05-16T02:06:16.715Z,12.20
2018-05-16T02:08:50.999Z,12.20
2018-05-16T02:11:25.354Z,12.20
2018-05-16T02:13:53.640Z,12.10
2018-05-16T02:16:22.711Z,12.10
2018-05-16T02:18:51.028Z,12.10
2018-05-16T02:21:19.316Z,12.10
2018-05-16T02:23:47.608Z,12.00
2018-05-16T02:26:15.903Z,12.00
2018-05-16T02:28:44.199Z,12.00
2018-05-16T02:31:12.493Z,12.00
2018-05-16T02:33:41.595Z,11.90
2018-05-16T02:36:09.876Z,11.90
2018-05-16T02:38:38.966Z,11.90
2018-05-16T02:41:08.008Z,11.80
2018-05-16T02:43:36.292Z,11.80
2018-05-16T02:46:04.603Z,11.80
2018-05-16T02:48:33.649Z,11.70
2018-05-16T02:51:01.923Z,11.70
2018-05-16T02:53:30.211Z,11.80
2018-05-16T02:55:58.511Z,11.80
2018-05-16T02:58:26.808Z,11.80
2018-05-16T03:00:55.876Z,11.90
2018-05-16T03:03:24.158Z,11.80
2018-05-16T03:05:52.443Z,11.90
2018-05-16T03:08:21.505Z,12.00
2018-05-16T03:10:50.079Z,11.90
2018-05-16T03:13:18.380Z,12.00
2018-05-16T03:15:46.676Z,12.10
2018-05-16T03:18:14.949Z,12.20
2018-05-16T03:20:43.268Z,12.20
2018-05-16T03:23:11.555Z,12.30
2018-05-16T03:25:39.830Z,12.30
2018-05-16T03:28:08.121Z,12.30
2018-05-16T03:30:36.425Z,12.30
2018-05-16T03:33:04.687Z,12.30
2018-05-16T03:35:32.967Z,12.30
2018-05-16T03:38:01.275Z,12.30
2018-05-16T03:40:29.588Z,12.30
2018-05-16T03:42:57.871Z,12.20
2018-05-16T03:45:26.167Z,12.20
2018-05-16T03:47:54.455Z,12.10
2018-05-16T03:50:22.744Z,12.10
2018-05-16T03:52:51.815Z,11.90
2018-05-16T03:55:20.096Z,11.90
2018-05-16T04:01:02.611Z,11.80
2018-05-16T04:03:42.859Z,11.70
2018-05-16T04:06:11.143Z,11.70
2018-05-16T04:08:39.440Z,11.70
2018-05-16T04:11:07.753Z,11.80
2018-05-16T04:13:36.855Z,11.70
2018-05-16T04:16:05.899Z,11.70
2018-05-16T04:18:34.208Z,11.70
2018-05-16T04:21:03.267Z,11.80
2018-05-16T04:23:31.568Z,11.70
2018-05-16T04:25:59.872Z,11.90
2018-05-16T04:28:28.933Z,11.90
2018-05-16T04:30:57.219Z,11.80
2018-05-16T04:33:25.492Z,11.90
2018-05-16T04:35:53.791Z,11.90
2018-05-16T04:38:22.079Z,11.90
2018-05-16T04:40:50.391Z,11.90
2018-05-16T04:43:18.668Z,11.90
2018-05-16T04:45:46.960Z,11.90
2018-05-16T04:48:15.353Z,11.90
2018-05-16T04:50:43.631Z,12.00
2018-05-16T04:53:12.701Z,12.10
2018-05-16T04:55:40.999Z,12.10
2018-05-16T04:58:09.271Z,12.20
2018-05-16T05:00:37.649Z,12.20
2018-05-16T05:03:05.936Z,12.20
2018-05-16T05:05:34.984Z,12.50
2018-05-16T05:08:03.313Z,12.40
2018-05-16T05:10:31.603Z,12.60
2018-05-16T05:12:59.893Z,12.70
2018-05-16T05:15:28.192Z,12.90
2018-05-16T05:17:56.467Z,13.00
2018-05-16T05:20:24.776Z,13.10
2018-05-16T05:22:53.627Z,13.20
2018-05-16T05:25:21.937Z,13.30
2018-05-16T05:27:50.223Z,13.40
2018-05-16T05:30:18.689Z,13.50
2018-05-16T05:32:47.686Z,13.70
2018-05-16T05:35:15.959Z,13.60
2018-05-16T05:37:44.260Z,13.70
2018-05-16T05:40:13.337Z,13.90
2018-05-16T05:42:41.632Z,13.90
2018-05-16T05:45:10.686Z,14.10
2018-05-16T05:47:38.997Z,14.00
2018-05-16T05:50:08.784Z,13.90
2018-05-16T05:52:37.105Z,13.90
2018-05-16T05:55:06.184Z,13.90
2018-05-16T05:57:34.464Z,13.80
2018-05-16T06:00:03.646Z,14.10
2018-05-16T06:02:31.840Z,14.00
2018-05-16T06:05:00.139Z,14.00
2018-05-16T06:07:28.430Z,14.00
2018-05-16T06:09:56.699Z,14.10
2018-05-16T06:12:25.000Z,14.10
2018-05-16T06:14:53.271Z,14.10
2018-05-16T06:17:21.578Z,14.00
2018-05-16T06:19:49.952Z,14.00
2018-05-16T06:22:19.056Z,14.10
2018-05-16T06:24:47.336Z,14.10
2018-05-16T06:27:15.692Z,14.10
2018-05-16T06:29:43.920Z,14.10
2018-05-16T06:32:12.228Z,14.20
2018-05-16T06:34:40.524Z,14.10
2018-05-16T06:37:08.808Z,14.30
2018-05-16T06:39:37.123Z,14.60
2018-05-16T06:42:06.161Z,14.80
2018-05-16T06:44:34.425Z,14.80
2018-05-16T06:47:02.736Z,14.60
2018-05-16T06:49:31.119Z,14.40
2018-05-16T06:51:59.414Z,14.50
2018-05-16T06:54:28.472Z,14.70
2018-05-16T06:56:56.777Z,14.60
2018-05-16T06:59:25.865Z,15.00
2018-05-16T07:01:55.661Z,15.10
2018-05-16T07:04:23.964Z,15.10
2018-05-16T07:06:52.243Z,15.30
2018-05-16T07:09:21.334Z,15.30
2018-05-16T07:11:49.649Z,15.20
2018-05-16T07:14:17.937Z,15.40
2018-05-16T07:16:46.239Z,15.50
2018-05-16T07:19:14.545Z,15.50
2018-05-16T07:21:42.903Z,15.50
2018-05-16T07:24:11.199Z,15.40
2018-05-16T07:26:40.248Z,15.20
2018-05-16T07:29:08.522Z,15.10
2018-05-16T07:31:36.928Z,15.20
2018-05-16T07:34:05.311Z,15.40
2018-05-16T07:36:33.604Z,15.40
2018-05-16T07:39:02.691Z,15.60
2018-05-16T07:41:30.959Z,15.50
2018-05-16T07:44:00.835Z,15.60
2018-05-16T07:46:29.139Z,15.60
2018-05-16T07:48:57.407Z,15.90
2018-05-16T07:51:25.727Z,16.10
2018-05-16T07:53:54.302Z,16.20
2018-05-16T07:56:22.543Z,16.20
2018-05-16T07:58:50.827Z,15.90
2018-05-16T08:01:19.107Z,15.50
2018-05-16T08:03:47.407Z,15.30
2018-05-16T08:06:15.708Z,15.20
2018-05-16T08:08:44.011Z,15.10
2018-05-16T08:11:12.279Z,15.10
2018-05-16T08:13:40.562Z,14.80
2018-05-16T08:16:08.860Z,14.50
2018-05-16T08:18:37.119Z,14.50
2018-05-16T08:21:05.388Z,14.50
2018-05-16T08:23:33.692Z,14.40
2018-05-16T08:26:01.994Z,14.30
2018-05-16T08:28:31.093Z,14.20
2018-05-16T08:31:00.140Z,14.10
2018-05-16T08:33:28.448Z,14.10
2018-05-16T08:35:56.711Z,14.10
2018-05-16T08:38:24.991Z,14.00
2018-05-16T08:40:53.282Z,13.90
2018-05-16T08:43:23.075Z,13.70
2018-05-16T08:45:51.359Z,13.70
2018-05-16T08:48:19.639Z,13.70
2018-05-16T08:50:48.941Z,13.60
2018-05-16T08:53:17.263Z,13.60
2018-05-16T08:55:45.543Z,13.50
2018-05-16T08:58:13.819Z,13.50
2018-05-16T09:00:42.867Z,13.40
2018-05-16T09:03:11.128Z,13.40
2018-05-16T09:05:39.407Z,13.50
2018-05-16T09:08:07.716Z,13.60
2018-05-16T09:10:36.067Z,13.70
2018-05-16T09:13:04.356Z,13.70
2018-05-16T09:15:33.420Z,13.90
2018-05-16T09:18:01.679Z,13.90
2018-05-16T09:20:30.007Z,14.00
2018-05-16T09:22:58.373Z,14.10
2018-05-16T09:25:26.657Z,14.10
2018-05-16T09:27:54.953Z,14.20
2018-05-16T09:30:23.203Z,14.10
2018-05-16T09:32:52.636Z,14.00
2018-05-16T09:35:20.905Z,14.00
2018-05-16T09:37:50.047Z,14.00
2018-05-16T09:40:18.332Z,14.00
2018-05-16T09:42:46.593Z,14.10
2018-05-16T09:45:14.887Z,14.10
2018-05-16T09:47:43.166Z,14.20
2018-05-16T09:50:12.987Z,14.10
2018-05-16T09:52:41.264Z,14.10
2018-05-16T09:55:09.546Z,14.10
2018-05-16T09:57:37.840Z,14.10
2018-05-16T10:00:06.895Z,14.10
2018-05-16T10:02:35.164Z,14.10
2018-05-16T10:05:03.459Z,14.20
2018-05-16T10:07:32.543Z,14.50
2018-05-16T10:10:00.940Z,14.40
2018-05-16T10:12:29.346Z,14.70
2018-05-16T10:14:57.633Z,14.80
2018-05-16T10:17:26.687Z,15.10
2018-05-16T10:19:54.980Z,15.10
2018-05-16T10:22:23.263Z,15.30
2018-05-16T10:24:52.308Z,15.60
2018-05-16T10:27:20.711Z,15.50
2018-05-16T10:29:49.008Z,15.80
2018-05-16T10:32:18.052Z,16.20
2018-05-16T10:34:46.367Z,16.10
2018-05-16T10:37:15.435Z,16.20
2018-05-16T10:39:43.835Z,16.20
2018-05-16T10:42:12.112Z,15.90
2018-05-16T10:44:40.380Z,15.90
2018-05-16T10:47:08.635Z,15.90
2018-05-16T10:49:36.928Z,16.00
2018-05-16T10:52:05.360Z,16.20
2018-05-16T10:54:33.574Z,16.40
2018-05-16T10:57:01.872Z,16.70
2018-05-16T10:59:30.248Z,17.10
2018-05-16T11:01:58.625Z,17.40
2018-05-16T11:04:26.907Z,17.70
2018-05-16T11:06:55.179Z,17.70
2018-05-16T11:09:23.467Z,17.90
2018-05-16T11:11:51.755Z,18.10
2018-05-16T11:14:20.060Z,18.30
2018-05-16T11:16:48.356Z,18.60
2018-05-16T11:19:16.762Z,18.60
2018-05-16T11:21:45.135Z,18.70
2018-05-16T11:24:13.427Z,18.90
2018-05-16T11:26:42.508Z,18.70
2018-05-16T11:29:10.803Z,18.70
2018-05-16T11:31:39.887Z,19.10
2018-05-16T11:34:08.205Z,19.00
2018-05-16T11:36:36.507Z,18.90
2018-05-16T11:39:04.802Z,18.90
2018-05-16T11:41:33.099Z,19.10
2018-05-16T11:44:02.184Z,18.90
2018-05-16T11:46:31.282Z,18.90
2018-05-16T11:48:59.577Z,18.90
2018-05-16T11:51:27.861Z,18.60
2018-05-16T11:53:56.939Z,18.30
2018-05-16T11:56:25.228Z,18.20
2018-05-16T11:58:54.313Z,18.00
2018-05-16T12:01:22.571Z,17.90
2018-05-16T12:03:50.871Z,18.00
2018-05-16T12:06:19.929Z,18.40
2018-05-16T12:08:48.211Z,18.30
2018-05-16T12:11:16.509Z,18.50
2018-05-16T12:13:45.579Z,18.70
2018-05-16T12:16:13.859Z,18.60
2018-05-16T12:18:42.140Z,18.40
2018-05-16T12:21:10.417Z,18.30
2018-05-16T12:23:38.703Z,18.50
2018-05-16T12:26:07.075Z,18.50
2018-05-16T12:28:35.335Z,18.70
2018-05-16T12:31:03.624Z,18.90
2018-05-16T12:33:31.919Z,18.90
2018-05-16T12:36:00.984Z,18.70
2018-05-16T12:38:29.300Z,18.60
2018-05-16T12:40:59.096Z,18.90
2018-05-16T12:43:31.251Z,19.20
2018-05-16T12:45:59.553Z,19.10
2018-05-16T12:48:28.635Z,19.60
2018-05-16T12:50:56.941Z,19.50
2018-05-16T12:53:25.256Z,19.90
2018-05-16T12:55:53.555Z,20.10
2018-05-16T12:58:21.867Z,19.90
2018-05-16T13:00:50.951Z,19.40
2018-05-16T13:03:19.319Z,19.40
2018-05-16T13:05:47.619Z,19.30
2018-05-16T13:08:15.920Z,19.20
2018-05-16T13:10:44.231Z,18.90
2018-05-16T13:13:12.544Z,18.70
2018-05-16T13:15:40.875Z,18.50
2018-05-16T13:18:09.238Z,18.30
2018-05-16T13:20:37.520Z,18.10
2018-05-16T13:23:05.796Z,18.00
2018-05-16T13:25:34.140Z,18.00
2018-05-16T13:28:02.431Z,17.90
2018-05-16T13:30:30.719Z,17.70
2018-05-16T13:32:58.998Z,17.50
2018-05-16T13:35:27.255Z,17.40
2018-05-16T13:37:55.540Z,17.30
2018-05-16T13:40:23.819Z,17.40
2018-05-16T13:42:52.112Z,17.30
2018-05-16T13:45:20.435Z,17.40
2018-05-16T13:47:48.731Z,17.40
2018-05-16T13:50:17.786Z,17.60
2018-05-16T13:52:46.064Z,17.50
2018-05-16T13:55:14.374Z,17.70
2018-05-16T13:57:43.428Z,17.80
2018-05-16T14:00:11.781Z,17.80
2018-05-16T14:02:40.031Z,17.90
2018-05-16T14:05:09.075Z,18.30
2018-05-16T14:07:37.379Z,18.20
2018-05-16T14:10:06.555Z,18.60
2018-05-16T14:12:35.656Z,18.60
2018-05-16T14:15:04.695Z,18.60
2018-05-16T14:17:33.008Z,18.60
2018-05-16T14:20:01.385Z,18.80
2018-05-16T14:22:29.639Z,18.90
2018-05-16T14:24:57.932Z,19.10
2018-05-16T14:27:26.231Z,19.30
2018-05-16T14:29:54.516Z,19.70
2018-05-16T14:32:22.808Z,20.00
2018-05-16T14:34:51.115Z,20.30
2018-05-16T14:37:19.391Z,20.50
2018-05-16T14:39:47.696Z,20.60
2018-05-16T14:42:15.993Z,20.80
2018-05-16T14:44:44.287Z,20.80
2018-05-16T14:47:12.661Z,20.90
2018-05-16T14:49:41.790Z,21.20
2018-05-16T14:52:10.819Z,21.30
2018-05-16T14:54:39.129Z,21.20
2018-05-16T14:57:08.188Z,21.30
2018-05-16T14:59:36.468Z,21.20
2018-05-16T15:02:04.819Z,21.10
2018-05-16T15:04:33.093Z,21.20
2018-05-16T15:07:01.421Z,21.30
2018-05-16T15:09:29.709Z,21.40
2018-05-16T15:11:58.038Z,21.40
2018-05-16T15:14:26.315Z,21.40
2018-05-16T15:16:54.611Z,21.20
2018-05-16T15:19:22.908Z,21.20
2018-05-16T15:21:51.975Z,21.10
2018-05-16T15:24:20.272Z,21.10
2018-05-16T15:26:48.573Z,21.30
2018-05-16T15:29:17.624Z,21.50
2018-05-16T15:31:45.924Z,21.50
2018-05-16T15:34:15.020Z,21.90
2018-05-16T15:36:44.116Z,22.20
2018-05-16T15:39:12.389Z,22.20
2018-05-16T15:41:40.659Z,22.20
2018-05-16T15:44:08.944Z,22.20
2018-05-16T15:46:38.028Z,22.30
2018-05-16T15:49:06.327Z,22.20
2018-05-16T15:54:10.048Z,22.70
2018-05-16T15:56:39.115Z,22.80
2018-05-16T15:59:07.403Z,22.80
2018-05-16T16:01:36.506Z,22.80
2018-05-16T16:04:04.784Z,22.80
2018-05-16T16:06:33.089Z,22.70
2018-05-16T16:09:01.404Z,22.90
2018-05-16T16:11:29.679Z,23.30
2018-05-16T16:13:58.013Z,23.40
2018-05-16T16:16:26.243Z,23.10
2018-05-16T16:18:54.627Z,22.70
2018-05-16T16:21:23.010Z,22.30
2018-05-16T16:23:51.980Z,21.50
2018-05-16T16:26:20.260Z,21.50
2018-05-16T16:28:48.560Z,21.30
2018-05-16T16:31:16.858Z,21.10
2018-05-16T16:33:45.168Z,20.90
2018-05-16T16:36:13.456Z,20.60
2018-05-16T16:38:41.742Z,20.30
2018-05-16T16:41:10.044Z,20.20
2018-05-16T16:43:38.527Z,20.20
2018-05-16T16:46:06.896Z,20.30
2018-05-16T16:48:35.187Z,20.30
2018-05-16T16:51:03.485Z,20.30
2018-05-16T16:53:31.765Z,20.40
2018-05-16T16:56:00.104Z,20.60
2018-05-16T16:58:28.489Z,21.00
2018-05-16T17:00:56.860Z,21.30
2018-05-16T17:03:25.135Z,21.40
2018-05-16T17:05:53.515Z,21.30
2018-05-16T17:08:22.611Z,20.70
2018-05-16T17:10:50.994Z,20.60
2018-05-16T17:13:19.272Z,20.30
2018-05-16T17:15:47.547Z,20.10
2018-05-16T17:18:15.832Z,19.80
2018-05-16T17:20:44.930Z,19.40
2018-05-16T17:23:13.209Z,19.40
2018-05-16T17:25:42.257Z,19.30
2018-05-16T17:28:10.557Z,19.30
2018-05-16T17:30:38.832Z,19.20
2018-05-16T17:33:07.163Z,19.20
2018-05-16T17:35:36.201Z,19.40
2018-05-16T17:38:04.515Z,19.30
2018-05-16T17:40:33.571Z,19.50
2018-05-16T17:43:01.854Z,19.40
2018-05-16T17:45:30.148Z,19.50
2018-05-16T17:47:58.439Z,19.50
2018-05-16T17:50:26.744Z,19.40
2018-05-16T17:52:55.035Z,19.20
2018-05-16T17:55:23.339Z,19.20
2018-05-16T17:57:51.707Z,19.20
2018-05-16T18:00:20.035Z,19.00
2018-05-16T18:02:49.097Z,18.80
2018-05-16T18:05:18.180Z,18.70
2018-05-16T18:07:46.453Z,18.70
2018-05-16T18:10:14.735Z,18.70
2018-05-16T18:12:43.047Z,18.60
2018-05-16T18:15:23.172Z,18.50
2018-05-16T18:17:51.547Z,18.40
2018-05-16T18:20:19.843Z,18.30
2018-05-16T18:22:48.171Z,18.20
2018-05-16T18:25:16.459Z,18.10
2018-05-16T18:27:44.746Z,18.10
2018-05-16T18:30:13.031Z,18.10
2018-05-16T18:32:42.115Z,18.00
2018-05-16T18:35:11.183Z,18.00
2018-05-16T18:37:39.459Z,18.00
2018-05-16T18:40:07.867Z,18.10
2018-05-16T18:42:36.265Z,18.10
2018-05-16T18:45:04.479Z,18.10
2018-05-16T18:47:32.788Z,18.10
2018-05-16T18:50:01.094Z,18.10
2018-05-16T18:52:30.151Z,18.10
2018-05-16T18:54:58.465Z,18.10
2018-05-16T18:57:26.739Z,18.20
2018-05-16T18:59:55.016Z,18.20
2018-05-16T19:02:24.090Z,18.20
2018-05-16T19:04:52.384Z,18.20
2018-05-16T19:07:21.440Z,18.20
2018-05-16T19:09:49.719Z,18.20
2018-05-16T19:12:18.023Z,18.10
2018-05-16T19:14:46.308Z,18.00
2018-05-16T19:17:14.612Z,18.00
2018-05-16T19:19:42.932Z,17.90
2018-05-16T19:22:11.229Z,17.90
2018-05-16T19:24:39.611Z,17.80
2018-05-16T19:27:08.698Z,17.80
2018-05-16T19:29:36.983Z,17.70
2018-05-16T19:32:05.260Z,17.70
2018-05-16T19:34:33.551Z,17.70
2018-05-16T19:37:01.845Z,17.70
2018-05-16T19:39:30.148Z,17.60
2018-05-16T19:41:58.424Z,17.60
2018-05-16T19:44:26.852Z,17.60
2018-05-16T19:46:55.903Z,17.60
2018-05-16T19:49:24.275Z,17.60
2018-05-16T19:51:52.575Z,17.60
2018-05-16T19:54:20.885Z,17.60
2018-05-16T19:56:49.958Z,17.50
2018-05-16T19:59:18.343Z,17.50
2018-05-16T20:01:48.248Z,17.50
2018-05-16T20:04:16.535Z,17.40
2018-05-16T20:06:44.820Z,17.50
2018-05-16T20:09:13.135Z,17.50
2018-05-16T20:11:41.471Z,17.50
2018-05-16T20:14:09.739Z,17.40
2018-05-16T20:16:38.052Z,17.40
2018-05-16T20:19:06.349Z,17.40
2018-05-16T20:21:34.628Z,17.30
2018-05-16T20:24:02.915Z,17.30
2018-05-16T20:26:31.187Z,17.20
2018-05-16T20:28:59.491Z,17.20
2018-05-16T20:31:27.776Z,17.10
2018-05-16T20:33:56.092Z,17.10
2018-05-16T20:36:24.389Z,17.00
2018-05-16T20:38:52.723Z,17.00
2018-05-16T20:41:21.014Z,17.00
2018-05-16T20:43:49.315Z,17.00
2018-05-16T20:46:17.596Z,17.00
2018-05-16T20:48:45.902Z,17.00
2018-05-16T20:51:14.279Z,17.00
2018-05-16T20:53:42.563Z,17.00
2018-05-16T20:56:10.938Z,17.00
2018-05-16T20:58:39.233Z,17.00
2018-05-16T21:01:07.505Z,17.00
2018-05-16T21:03:35.864Z,17.00
2018-05-16T21:06:04.175Z,16.90
2018-05-16T21:08:32.455Z,17.00
2018-05-16T21:11:01.520Z,16.90
2018-05-16T21:13:29.812Z,16.80
2018-05-16T21:15:58.992Z,16.90
2018-05-16T21:18:27.268Z,16.80
2018-05-16T21:20:55.649Z,16.90
2018-05-16T21:23:24.652Z,16.80
2018-05-16T21:25:52.939Z,16.80
2018-05-16T21:28:21.219Z,16.80
2018-05-16T21:30:50.304Z,16.90
2018-05-16T21:33:18.581Z,16.80
2018-05-16T21:35:46.865Z,16.80
2018-05-16T21:38:15.185Z,16.80
2018-05-16T21:40:43.456Z,16.80
2018-05-16T21:43:11.750Z,16.80
2018-05-16T21:45:40.027Z,16.80
2018-05-16T21:48:08.311Z,16.80
2018-05-16T21:50:36.592Z,16.80
2018-05-16T21:53:04.906Z,16.70
2018-05-16T21:55:33.977Z,16.70
2018-05-16T21:58:03.035Z,16.70
2018-05-16T22:00:31.327Z,16.60
2018-05-16T22:02:59.623Z,16.60
2018-05-16T22:05:27.918Z,16.60
2018-05-16T22:07:56.970Z,16.50
2018-05-16T22:10:25.287Z,16.50
2018-05-16T22:12:55.087Z,16.40
2018-05-16T22:15:23.364Z,16.40
2018-05-16T22:17:51.728Z,16.40
2018-05-16T22:20:20.032Z,16.30
2018-05-16T22:22:49.849Z,16.20
2018-05-16T22:25:18.887Z,16.20
2018-05-16T22:27:47.184Z,16.20
2018-05-16T22:30:15.008Z,16.20
2018-05-16T22:32:49.031Z,16.10
2018-05-16T22:35:23.084Z,16.00
2018-05-16T22:37:57.091Z,16.00
2018-05-16T22:40:31.071Z,15.90
2018-05-16T22:42:58.872Z,15.90
2018-05-16T22:45:27.964Z,15.70
2018-05-16T22:47:56.267Z,15.70
2018-05-16T22:50:25.390Z,15.60
2018-05-16T22:52:54.135Z,15.50
2018-05-16T22:55:23.210Z,15.40
2018-05-16T22:57:51.494Z,15.40
2018-05-16T23:00:22.599Z,15.40
2018-05-16T23:02:50.907Z,15.30
2018-05-16T23:05:19.222Z,15.30
2018-05-16T23:07:48.263Z,15.30
2018-05-16T23:10:16.623Z,15.30
2018-05-16T23:12:44.948Z,15.30
2018-05-16T23:15:13.591Z,15.30
2018-05-16T23:17:41.896Z,15.20
2018-05-16T23:20:10.179Z,15.10
2018-05-16T23:22:38.464Z,15.10
2018-05-16T23:25:06.754Z,14.90
2018-05-16T23:27:36.023Z,14.80
2018-05-16T23:30:04.306Z,14.80
2018-05-16T23:32:34.117Z,14.70
2018-05-16T23:35:02.507Z,14.70
2018-05-16T23:37:31.576Z,14.70
2018-05-16T23:39:59.875Z,14.70
2018-05-16T23:42:28.163Z,14.70
2018-05-16T23:44:57.221Z,14.60
2018-05-16T23:47:26.325Z,14.50
2018-05-16T23:49:54.624Z,14.40
2018-05-16T23:52:23.707Z,14.40
2018-05-16T23:54:52.018Z,14.40
2018-05-16T23:57:21.045Z,14.40
2018-05-16T23:59:49.331Z,14.30
